createdAt,value
2022-11-06T00:00:30.184Z,100684.83
2022-11-06T00:03:01.603Z,100687.33
2022-11-06T00:05:49.485Z,100691.58
2022-11-06T00:08:30.605Z,100690.27
2022-11-06T00:10:58.428Z,100694.59
2022-11-06T00:13:26.269Z,100695.39
2022-11-06T00:15:54.026Z,100693.40
2022-11-06T00:18:21.812Z,100696.87
2022-11-06T00:20:49.611Z,100695.35
2022-11-06T00:23:17.231Z,100702.95
2022-11-06T00:25:45.180Z,100699.16
2022-11-06T00:28:13.137Z,100708.67
2022-11-06T00:30:41.142Z,100708.20
2022-11-06T00:33:10.664Z,100703.52
2022-11-06T00:35:39.462Z,100702.35
2022-11-06T00:38:07.397Z,100711.17
2022-11-06T00:40:35.537Z,100716.08
2022-11-06T00:43:03.594Z,100715.45
2022-11-06T00:45:31.300Z,100717.69
2022-11-06T00:47:59.152Z,100719.54
2022-11-06T00:50:27.287Z,100723.77
2022-11-06T00:52:55.505Z,100724.58
2022-11-06T00:55:23.290Z,100731.13
2022-11-06T00:57:51.236Z,100733.63
2022-11-06T01:00:20.450Z,100737.27
2022-11-06T01:02:48.443Z,100735.60
2022-11-06T01:05:16.566Z,100740.66
2022-11-06T01:07:44.753Z,100740.09
2022-11-06T01:10:12.382Z,100745.53
2022-11-06T01:12:40.132Z,100744.27
2022-11-06T01:15:08.443Z,100749.77
2022-11-06T01:17:36.112Z,100751.48
2022-11-06T01:20:04.804Z,100746.01
2022-11-06T01:22:32.425Z,100747.90
2022-11-06T01:25:00.170Z,100741.30
2022-11-06T01:27:27.968Z,100738.59
2022-11-06T01:29:56.860Z,100738.81
2022-11-06T01:32:24.620Z,100742.58
2022-11-06T01:34:52.349Z,100746.66
2022-11-06T01:37:20.054Z,100752.02
2022-11-06T01:39:50.485Z,100753.79
2022-11-06T01:42:21.011Z,100756.67
2022-11-06T01:45:20.094Z,100749.95
2022-11-06T01:47:48.845Z,100754.20
2022-11-06T01:50:17.826Z,100754.17
2022-11-06T01:52:48.152Z,100754.29
2022-11-06T01:55:21.199Z,100754.78
2022-11-06T01:57:49.027Z,100755.69
2022-11-06T02:00:17.435Z,100758.16
2022-11-06T02:02:45.508Z,100760.44
2022-11-06T02:05:13.374Z,100759.70
2022-11-06T02:07:43.843Z,100759.33
2022-11-06T02:10:11.895Z,100762.50
2022-11-06T02:13:02.791Z,100761.20
2022-11-06T02:15:41.734Z,100752.84
2022-11-06T02:18:28.465Z,100751.19
2022-11-06T02:21:17.786Z,100751.70
2022-11-06T02:24:24.283Z,100759.65
2022-11-06T02:27:24.046Z,100762.49
2022-11-06T02:30:09.568Z,100768.75
2022-11-06T02:32:40.005Z,100771.16
2022-11-06T02:35:18.501Z,100774.30
2022-11-06T02:37:48.783Z,100777.23
2022-11-06T02:40:18.560Z,100779.91
2022-11-06T02:42:51.386Z,100782.20
2022-11-06T02:45:20.081Z,100788.79
2022-11-06T02:47:51.422Z,100788.45
2022-11-06T02:50:30.431Z,100787.29
2022-11-06T02:53:04.809Z,100788.38
2022-11-06T02:55:51.387Z,100795.73
2022-11-06T02:58:24.744Z,100797.33
2022-11-06T03:01:03.100Z,100799.85
2022-11-06T03:03:35.669Z,100803.30
2022-11-06T03:06:25.985Z,100800.57
2022-11-06T03:09:08.943Z,100800.95
2022-11-06T03:11:40.172Z,100797.88
2022-11-06T03:14:20.014Z,100800.58
2022-11-06T03:17:19.311Z,100800.92
2022-11-06T03:19:50.870Z,100800.86
2022-11-06T03:22:42.099Z,100796.08
2022-11-06T03:25:20.104Z,100799.12
2022-11-06T03:28:16.365Z,100801.44
2022-11-06T03:30:50.794Z,100798.60
2022-11-06T03:33:26.197Z,100801.84
2022-11-06T03:36:12.548Z,100802.20
2022-11-06T03:38:45.117Z,100807.63
2022-11-06T03:41:39.556Z,100810.66
2022-11-06T03:44:10.449Z,100812.89
2022-11-06T03:46:44.126Z,100815.17
2022-11-06T03:49:17.169Z,100819.55
2022-11-06T03:51:49.866Z,100820.97
2022-11-06T03:54:19.783Z,100829.02
2022-11-06T03:57:00.751Z,100827.98
2022-11-06T03:59:34.193Z,100832.89
2022-11-06T04:02:03.108Z,100835.60
2022-11-06T04:04:38.605Z,100832.31
2022-11-06T04:07:12.172Z,100829.23
2022-11-06T04:10:03.813Z,100827.21
2022-11-06T04:12:52.727Z,100826.77
2022-11-06T04:15:21.815Z,100830.45
2022-11-06T04:17:49.438Z,100831.88
2022-11-06T04:20:40.402Z,100833.02
2022-11-06T04:23:25.587Z,100835.50
2022-11-06T04:26:31.381Z,100842.42
2022-11-06T04:29:25.078Z,100843.30
2022-11-06T04:31:59.452Z,100839.63
2022-11-06T04:34:42.175Z,100838.94
2022-11-06T04:37:22.551Z,100838.95
2022-11-06T04:40:16.072Z,100838.42
2022-11-06T04:42:59.405Z,100830.19
2022-11-06T04:45:32.723Z,100828.20
2022-11-06T04:48:03.433Z,100824.20
2022-11-06T04:50:36.834Z,100822.48
2022-11-06T04:53:06.038Z,100817.88
2022-11-06T04:55:39.298Z,100818.61
2022-11-06T04:58:06.913Z,100815.54
2022-11-06T05:00:34.855Z,100819.83
2022-11-06T05:03:02.549Z,100818.05
2022-11-06T05:05:30.618Z,100824.88
2022-11-06T05:07:58.277Z,100828.88
2022-11-06T05:10:26.050Z,100828.23
2022-11-06T05:12:53.750Z,100830.45
2022-11-06T05:15:21.369Z,100831.40
2022-11-06T05:17:49.076Z,100838.81
2022-11-06T05:20:16.681Z,100842.73
2022-11-06T05:23:00.471Z,100850.30
2022-11-06T05:25:31.838Z,100850.77
2022-11-06T05:28:00.968Z,100851.03
2022-11-06T05:30:28.756Z,100850.77
2022-11-06T05:32:56.489Z,100854.02
2022-11-06T05:35:24.355Z,100855.70
2022-11-06T05:37:58.764Z,100854.69
2022-11-06T05:40:26.428Z,100857.99
2022-11-06T05:42:54.290Z,100859.96
2022-11-06T05:45:21.927Z,100863.33
2022-11-06T05:47:49.574Z,100863.05
2022-11-06T05:50:17.226Z,100866.80
2022-11-06T05:52:44.916Z,100871.40
2022-11-06T05:55:15.032Z,100871.05
2022-11-06T05:57:43.493Z,100873.35
2022-11-06T06:00:12.273Z,100875.94
2022-11-06T06:02:43.744Z,100879.86
2022-11-06T06:05:11.590Z,100882.33
2022-11-06T06:07:39.374Z,100890.09
2022-11-06T06:10:07.951Z,100893.23
2022-11-06T06:12:35.608Z,100897.34
2022-11-06T06:15:03.572Z,100896.97
2022-11-06T06:17:31.198Z,100896.98
2022-11-06T06:19:59.025Z,100899.05
2022-11-06T06:22:26.713Z,100898.88
2022-11-06T06:24:54.560Z,100902.04
2022-11-06T06:27:22.325Z,100908.35
2022-11-06T06:29:49.965Z,100909.07
2022-11-06T06:32:17.841Z,100910.90
2022-11-06T06:34:45.476Z,100912.25
2022-11-06T06:37:16.476Z,100914.33
2022-11-06T06:39:47.671Z,100918.81
2022-11-06T06:42:15.325Z,100921.33
2022-11-06T06:44:43.051Z,100927.62
2022-11-06T06:47:10.662Z,100929.67
2022-11-06T06:49:38.400Z,100926.28
2022-11-06T06:52:06.377Z,100926.15
2022-11-06T06:54:34.055Z,100928.37
2022-11-06T06:57:01.777Z,100936.27
2022-11-06T06:59:29.484Z,100935.07
2022-11-06T07:01:57.889Z,100935.90
2022-11-06T07:04:25.707Z,100933.31
2022-11-06T07:06:54.571Z,100932.44
2022-11-06T07:09:23.934Z,100928.19
2022-11-06T07:11:51.602Z,100929.73
2022-11-06T07:14:19.302Z,100933.90
2022-11-06T07:16:51.147Z,100936.67
2022-11-06T07:19:21.787Z,100937.42
2022-11-06T07:21:53.491Z,100939.35
2022-11-06T07:24:21.197Z,100937.06
2022-11-06T07:26:48.882Z,100936.98
2022-11-06T07:29:16.535Z,100937.08
2022-11-06T07:31:44.234Z,100941.39
2022-11-06T07:34:12.005Z,100941.95
2022-11-06T07:36:39.742Z,100939.72
2022-11-06T07:39:07.386Z,100942.04
2022-11-06T07:41:35.264Z,100939.60
2022-11-06T07:44:02.980Z,100935.96
2022-11-06T07:46:30.915Z,100939.78
2022-11-06T07:48:58.683Z,100942.29
2022-11-06T07:51:26.409Z,100937.98
2022-11-06T07:53:54.151Z,100939.52
2022-11-06T07:56:21.872Z,100939.20
2022-11-06T07:58:49.507Z,100936.86
2022-11-06T08:01:18.915Z,100942.25
2022-11-06T08:03:47.057Z,100942.13
2022-11-06T08:06:14.712Z,100944.45
2022-11-06T08:08:42.504Z,100947.41
2022-11-06T08:11:11.784Z,100942.15
2022-11-06T08:13:40.248Z,100947.98
2022-11-06T08:16:13.842Z,100948.30
2022-11-06T08:18:41.731Z,100949.32
2022-11-06T08:21:09.432Z,100951.98
2022-11-06T08:23:37.245Z,100954.80
2022-11-06T08:26:07.525Z,100953.06
2022-11-06T08:28:35.643Z,100954.25
2022-11-06T08:31:05.701Z,100956.95
2022-11-06T08:33:36.258Z,100954.14
2022-11-06T08:36:05.204Z,100957.44
2022-11-06T08:38:33.413Z,100954.05
2022-11-06T08:41:12.121Z,100954.77
2022-11-06T08:43:40.229Z,100952.48
2022-11-06T08:46:09.783Z,100953.88
2022-11-06T08:48:37.383Z,100948.11
2022-11-06T08:51:05.908Z,100954.05
2022-11-06T08:53:33.855Z,100955.35
2022-11-06T08:56:05.431Z,100951.91
2022-11-06T08:58:33.089Z,100946.98
2022-11-06T09:01:00.787Z,100949.84
2022-11-06T09:03:28.548Z,100949.83
2022-11-06T09:05:56.200Z,100951.73
2022-11-06T09:08:24.353Z,100945.68
2022-11-06T09:10:58.205Z,100943.10
2022-11-06T09:13:28.215Z,100943.17
2022-11-06T09:15:57.058Z,100940.14
2022-11-06T09:18:24.737Z,100941.83
2022-11-06T09:20:56.909Z,100937.21
2022-11-06T09:23:25.367Z,100929.23
2022-11-06T09:25:53.191Z,100935.49
2022-11-06T09:28:20.818Z,100940.20
2022-11-06T09:30:48.485Z,100948.63
2022-11-06T09:33:16.548Z,100954.09
2022-11-06T09:35:44.518Z,100956.89
2022-11-06T09:38:15.316Z,100956.67
2022-11-06T09:40:52.975Z,100961.40
2022-11-06T09:44:03.012Z,100960.86
2022-11-06T09:46:38.983Z,100962.92
2022-11-06T09:49:22.527Z,100967.73
2022-11-06T09:52:02.450Z,100963.31
2022-11-06T09:54:56.866Z,100963.69
2022-11-06T09:57:42.914Z,100968.29
2022-11-06T10:00:13.947Z,100970.69
2022-11-06T10:02:53.070Z,100966.02
2022-11-06T10:05:30.263Z,100965.69
2022-11-06T10:08:05.398Z,100962.52
2022-11-06T10:10:45.379Z,100961.35
2022-11-06T10:13:22.258Z,100961.05
2022-11-06T10:16:10.742Z,100961.13
2022-11-06T10:18:47.375Z,100960.26
2022-11-06T10:21:24.077Z,100956.73
2022-11-06T10:24:05.961Z,100956.39
2022-11-06T10:26:36.949Z,100960.73
2022-11-06T10:29:33.616Z,100966.11
2022-11-06T10:32:23.297Z,100956.99
2022-11-06T10:35:00.342Z,100952.60
2022-11-06T10:37:32.668Z,100951.06
2022-11-06T10:40:04.148Z,100951.85
2022-11-06T10:42:38.505Z,100944.91
2022-11-06T10:45:21.418Z,100942.15
2022-11-06T10:47:55.508Z,100938.66
2022-11-06T10:50:28.732Z,100934.14
2022-11-06T10:53:27.417Z,100931.06
2022-11-06T10:56:37.894Z,100928.70
2022-11-06T10:59:05.807Z,100922.91
2022-11-06T11:01:33.819Z,100920.62
2022-11-06T11:04:01.740Z,100915.65
2022-11-06T11:06:29.352Z,100908.83
2022-11-06T11:08:57.032Z,100909.27
2022-11-06T11:11:26.761Z,100910.26
2022-11-06T11:13:57.272Z,100905.61
2022-11-06T11:16:28.509Z,100900.79
2022-11-06T11:19:32.828Z,100896.08
2022-11-06T11:22:04.027Z,100894.14
2022-11-06T11:24:34.147Z,100892.33
2022-11-06T11:27:04.581Z,100887.65
2022-11-06T11:29:41.597Z,100885.99
2022-11-06T11:32:14.982Z,100885.22
2022-11-06T11:34:56.272Z,100883.84
2022-11-06T11:37:31.594Z,100880.63
2022-11-06T11:40:18.762Z,100874.30
2022-11-06T11:42:46.740Z,100872.83
2022-11-06T11:45:21.233Z,100873.92
2022-11-06T11:47:51.671Z,100875.94
2022-11-06T11:50:19.966Z,100874.52
2022-11-06T11:52:51.246Z,100871.02
2022-11-06T11:55:27.333Z,100870.09
2022-11-06T11:57:59.370Z,100867.60
2022-11-06T12:00:29.011Z,100867.55
2022-11-06T12:03:02.676Z,100868.89
2022-11-06T12:05:30.461Z,100870.98
2022-11-06T12:07:59.719Z,100869.24
2022-11-06T12:10:33.495Z,100867.88
2022-11-06T12:13:05.209Z,100866.72
2022-11-06T12:15:55.906Z,100864.05
2022-11-06T12:18:29.598Z,100860.19
2022-11-06T12:21:12.347Z,100859.28
2022-11-06T12:23:54.355Z,100860.09
2022-11-06T12:26:43.389Z,100860.56
2022-11-06T12:29:16.270Z,100859.45
2022-11-06T12:31:52.443Z,100854.79
2022-11-06T12:34:40.941Z,100849.27
2022-11-06T12:37:24.982Z,100848.77
2022-11-06T12:40:01.469Z,100844.13
2022-11-06T12:42:32.704Z,100840.02
2022-11-06T12:45:00.574Z,100830.36
2022-11-06T12:47:42.533Z,100831.41
2022-11-06T12:50:36.934Z,100832.36
2022-11-06T12:53:25.830Z,100829.90
2022-11-06T12:56:14.016Z,100827.52
2022-11-06T12:59:05.123Z,100827.00
2022-11-06T13:01:53.062Z,100830.97
2022-11-06T13:04:42.041Z,100832.17
2022-11-06T13:07:31.695Z,100832.97
2022-11-06T13:10:21.176Z,100834.48
2022-11-06T13:12:51.846Z,100833.45
2022-11-06T13:15:36.179Z,100833.96
2022-11-06T13:18:14.233Z,100831.11
2022-11-06T13:21:00.655Z,100826.44
2022-11-06T13:23:33.741Z,100827.70
2022-11-06T13:26:19.892Z,100826.64
2022-11-06T13:28:58.028Z,100823.44
2022-11-06T13:31:37.337Z,100818.98
2022-11-06T13:34:07.052Z,100819.93
2022-11-06T13:36:37.417Z,100820.76
2022-11-06T13:39:13.941Z,100819.10
2022-11-06T13:41:41.698Z,100820.70
2022-11-06T13:44:18.825Z,100820.85
2022-11-06T13:47:05.042Z,100817.86
2022-11-06T13:50:08.783Z,100818.33
2022-11-06T13:53:00.418Z,100817.30
2022-11-06T13:55:52.884Z,100813.80
2022-11-06T13:58:24.147Z,100816.11
2022-11-06T14:01:13.413Z,100815.57
2022-11-06T14:03:54.409Z,100812.98
2022-11-06T14:06:24.725Z,100811.77
2022-11-06T14:08:56.807Z,100809.38
2022-11-06T14:11:31.218Z,100807.10
2022-11-06T14:14:05.915Z,100802.71
2022-11-06T14:16:37.395Z,100804.39
2022-11-06T14:19:22.670Z,100802.02
2022-11-06T14:21:52.562Z,100802.70
2022-11-06T14:24:20.161Z,100800.02
2022-11-06T14:26:49.924Z,100802.65
2022-11-06T14:29:29.656Z,100805.23
2022-11-06T14:32:21.479Z,100798.31
2022-11-06T14:34:49.227Z,100798.56
2022-11-06T14:37:20.007Z,100804.18
2022-11-06T14:39:56.921Z,100806.87
2022-11-06T14:42:27.194Z,100811.14
2022-11-06T14:45:10.138Z,100810.45
2022-11-06T14:47:50.023Z,100809.84
2022-11-06T14:50:39.421Z,100813.45
2022-11-06T14:53:25.370Z,100815.58
2022-11-06T14:56:00.269Z,100814.09
2022-11-06T14:58:38.285Z,100807.97
2022-11-06T15:01:08.999Z,100812.66
2022-11-06T15:04:12.152Z,100810.79
2022-11-06T15:06:43.715Z,100807.79
2022-11-06T15:09:12.906Z,100807.73
2022-11-06T15:11:47.744Z,100806.91
2022-11-06T15:14:15.776Z,100809.75
2022-11-06T15:16:45.273Z,100805.20
2022-11-06T15:19:36.932Z,100803.98
2022-11-06T15:22:35.917Z,100802.95
2022-11-06T15:25:17.512Z,100802.05
2022-11-06T15:28:11.332Z,100802.41
2022-11-06T15:30:52.660Z,100803.79
2022-11-06T15:33:45.487Z,100802.77
2022-11-06T15:36:17.046Z,100803.67
2022-11-06T15:38:44.982Z,100805.93
2022-11-06T15:41:25.228Z,100802.58
2022-11-06T15:43:58.157Z,100804.11
2022-11-06T15:46:28.730Z,100806.50
2022-11-06T15:49:19.435Z,100806.23
2022-11-06T15:51:52.309Z,100808.71
2022-11-06T15:54:40.110Z,100807.96
2022-11-06T15:57:20.470Z,100805.52
2022-11-06T15:59:48.586Z,100802.63
2022-11-06T16:02:22.604Z,100798.42
2022-11-06T16:04:51.624Z,100799.44
2022-11-06T16:07:20.685Z,100805.55
2022-11-06T16:09:51.638Z,100805.38
2022-11-06T16:12:19.540Z,100807.14
2022-11-06T16:14:47.465Z,100806.20
2022-11-06T16:17:24.551Z,100805.87
2022-11-06T16:19:55.441Z,100804.92
2022-11-06T16:22:30.170Z,100805.59
2022-11-06T16:25:03.052Z,100807.67
2022-11-06T16:27:36.376Z,100806.59
2022-11-06T16:30:06.524Z,100807.80
2022-11-06T16:32:40.899Z,100808.55
2022-11-06T16:35:36.212Z,100807.14
2022-11-06T16:38:39.020Z,100806.89
2022-11-06T16:41:05.444Z,100801.59
2022-11-06T16:43:33.363Z,100804.04
2022-11-06T16:46:08.085Z,100805.83
2022-11-06T16:48:41.266Z,100805.81
2022-11-06T16:51:13.265Z,100806.27
2022-11-06T16:53:57.767Z,100806.65
2022-11-06T16:56:29.286Z,100804.07
2022-11-06T16:59:01.937Z,100807.84
2022-11-06T17:01:38.580Z,100803.64
2022-11-06T17:04:07.089Z,100807.72
2022-11-06T17:06:36.849Z,100809.54
2022-11-06T17:09:23.704Z,100814.02
2022-11-06T17:11:56.030Z,100811.63
2022-11-06T17:14:25.143Z,100809.05
2022-11-06T17:16:58.536Z,100810.71
2022-11-06T17:19:28.538Z,100813.13
2022-11-06T17:21:57.963Z,100814.88
2022-11-06T17:24:41.430Z,100813.29
2022-11-06T17:27:09.485Z,100815.95
2022-11-06T17:29:38.803Z,100814.35
2022-11-06T17:32:06.611Z,100813.66
2022-11-06T17:34:34.296Z,100812.35
2022-11-06T17:37:01.936Z,100819.75
2022-11-06T17:39:30.720Z,100817.78
2022-11-06T17:41:58.448Z,100818.36
2022-11-06T17:44:26.115Z,100818.71
2022-11-06T17:46:53.748Z,100815.27
2022-11-06T17:49:21.524Z,100812.90
2022-11-06T17:52:01.374Z,100805.67
2022-11-06T17:54:37.027Z,100806.52
2022-11-06T17:57:06.913Z,100805.89
2022-11-06T17:59:35.468Z,100807.27
2022-11-06T18:02:03.462Z,100806.06
2022-11-06T18:04:34.349Z,100800.71
2022-11-06T18:07:02.184Z,100800.38
2022-11-06T18:09:30.112Z,100799.77
2022-11-06T18:11:57.853Z,100801.64
2022-11-06T18:14:27.599Z,100799.89
2022-11-06T18:16:55.366Z,100795.20
2022-11-06T18:19:25.155Z,100799.67
2022-11-06T18:21:54.341Z,100799.83
2022-11-06T18:24:22.532Z,100797.92
2022-11-06T18:26:50.834Z,100799.34
2022-11-06T18:29:18.855Z,100798.45
2022-11-06T18:31:46.780Z,100800.83
2022-11-06T18:34:20.234Z,100799.44
2022-11-06T18:36:50.485Z,100796.71
2022-11-06T18:39:18.608Z,100802.87
2022-11-06T18:41:46.310Z,100799.21
2022-11-06T18:44:15.866Z,100800.80
2022-11-06T18:46:45.012Z,100798.60
2022-11-06T18:49:12.880Z,100797.74
2022-11-06T18:51:40.759Z,100795.17
2022-11-06T18:54:10.636Z,100792.98
2022-11-06T18:56:38.963Z,100791.45
2022-11-06T18:59:11.367Z,100791.98
2022-11-06T19:01:39.473Z,100788.20
2022-11-06T19:04:08.371Z,100785.38
2022-11-06T19:06:38.092Z,100787.41
2022-11-06T19:09:09.237Z,100784.41
2022-11-06T19:11:37.203Z,100785.52
2022-11-06T19:14:05.352Z,100785.39
2022-11-06T19:16:33.182Z,100781.21
2022-11-06T19:19:05.681Z,100781.49
2022-11-06T19:21:34.819Z,100781.23
2022-11-06T19:24:05.285Z,100785.66
2022-11-06T19:26:35.994Z,100785.28
2022-11-06T19:29:07.548Z,100785.79
2022-11-06T19:31:37.280Z,100782.63
2022-11-06T19:34:07.572Z,100783.28
2022-11-06T19:36:36.183Z,100778.69
2022-11-06T19:39:04.475Z,100777.67
2022-11-06T19:41:32.534Z,100777.06
2022-11-06T19:44:00.209Z,100774.83
2022-11-06T19:46:34.925Z,100772.92
2022-11-06T19:49:08.198Z,100766.19
2022-11-06T19:51:37.569Z,100763.55
2022-11-06T19:54:09.367Z,100758.21
2022-11-06T19:57:29.664Z,100756.38
2022-11-06T19:59:25.752Z,100756.52
2022-11-06T20:01:53.512Z,100756.89
2022-11-06T20:04:21.655Z,100757.45
2022-11-06T20:06:50.124Z,100755.61
2022-11-06T20:09:17.782Z,100752.79
2022-11-06T20:11:45.695Z,100756.73
2022-11-06T20:14:16.425Z,100759.83
2022-11-06T20:16:44.109Z,100762.80
2022-11-06T20:19:12.303Z,100761.67
2022-11-06T20:21:39.943Z,100761.52
2022-11-06T20:24:08.113Z,100759.56
2022-11-06T20:26:36.736Z,100759.47
2022-11-06T20:29:04.823Z,100756.77
2022-11-06T20:31:33.185Z,100755.25
2022-11-06T20:34:00.939Z,100753.89
2022-11-06T20:36:30.712Z,100752.82
2022-11-06T20:39:00.554Z,100750.25
2022-11-06T20:41:29.909Z,100748.83
2022-11-06T20:43:58.075Z,100751.39
2022-11-06T20:46:26.336Z,100753.70
2022-11-06T20:48:54.270Z,100753.16
2022-11-06T20:51:24.745Z,100754.00
2022-11-06T20:53:52.822Z,100755.36
2022-11-06T20:56:22.542Z,100750.19
2022-11-06T20:58:50.413Z,100748.06
2022-11-06T21:01:21.380Z,100751.00
2022-11-06T21:03:51.186Z,100750.54
2022-11-06T21:06:21.644Z,100748.63
2022-11-06T21:08:49.514Z,100744.72
2022-11-06T21:11:22.487Z,100740.69
2022-11-06T21:13:53.387Z,100745.74
2022-11-06T21:16:27.456Z,100743.05
2022-11-06T21:18:55.360Z,100737.22
2022-11-06T21:21:25.461Z,100733.33
2022-11-06T21:29:11.557Z,100729.89
2022-11-06T21:31:47.276Z,100726.45
2022-11-06T21:34:18.441Z,100723.46
2022-11-06T21:36:47.113Z,100717.01
2022-11-06T21:39:18.501Z,100714.81
2022-11-06T21:41:46.465Z,100709.43
2022-11-06T21:44:16.749Z,100705.42
2022-11-06T21:46:45.860Z,100703.90
2022-11-06T21:49:14.552Z,100704.82
2022-11-06T21:51:42.819Z,100706.80
2022-11-06T21:54:30.062Z,100705.28
2022-11-06T21:56:58.056Z,100703.31
2022-11-06T21:59:27.766Z,100700.61
2022-11-06T22:01:56.023Z,100698.76
2022-11-06T22:04:24.340Z,100696.55
2022-11-06T22:06:52.606Z,100696.11
2022-11-06T22:09:24.944Z,100698.31
2022-11-06T22:11:53.455Z,100694.41
2022-11-06T22:14:21.173Z,100693.51
2022-11-06T22:16:48.986Z,100690.14
2022-11-06T22:19:17.776Z,100689.91
2022-11-06T22:21:45.707Z,100687.77
2022-11-06T22:24:14.201Z,100689.41
2022-11-06T22:26:42.512Z,100685.40
2022-11-06T22:29:15.474Z,100691.55
2022-11-06T22:31:43.457Z,100693.92
2022-11-06T22:34:12.826Z,100697.63
2022-11-06T22:36:41.713Z,100700.48
2022-11-06T22:39:11.302Z,100707.55
2022-11-06T22:41:39.950Z,100705.36
2022-11-06T22:44:08.549Z,100707.41
2022-11-06T22:46:36.287Z,100703.56
2022-11-06T22:49:05.214Z,100700.66
2022-11-06T22:51:33.842Z,100696.73
2022-11-06T22:54:01.937Z,100697.66
2022-11-06T22:56:30.691Z,100699.61
2022-11-06T22:59:04.340Z,100700.80
2022-11-06T23:01:37.209Z,100700.23
2022-11-06T23:04:08.974Z,100700.73
2022-11-06T23:06:36.665Z,100700.06
2022-11-06T23:09:04.429Z,100697.17
2022-11-06T23:11:32.229Z,100696.45
2022-11-06T23:14:08.370Z,100693.19
2022-11-06T23:16:55.844Z,100691.14
2022-11-06T23:19:24.117Z,100686.83
2022-11-06T23:21:52.571Z,100682.79
2022-11-06T23:24:20.350Z,100682.80
2022-11-06T23:26:48.067Z,100684.16
2022-11-06T23:29:15.857Z,100679.86
2022-11-06T23:31:43.584Z,100676.50
2022-11-06T23:34:11.310Z,100677.58
2022-11-06T23:36:39.016Z,100675.83
2022-11-06T23:39:06.691Z,100677.95
2022-11-06T23:41:43.468Z,100677.06
2022-11-06T23:44:30.867Z,100679.30
2022-11-06T23:46:58.637Z,100672.80
2022-11-06T23:49:26.613Z,100671.10
2022-11-06T23:51:54.389Z,100663.08
2022-11-06T23:54:22.397Z,100661.46
2022-11-06T23:56:50.041Z,100659.64
2022-11-06T23:59:17.756Z,100660.39
